createdAt,value
2022-10-20T00:00:10.431Z,0.60
2022-10-20T00:04:12.051Z,0.60
2022-10-20T00:08:13.739Z,0.60
2022-10-20T00:12:15.321Z,0.65
2022-10-20T00:16:18.006Z,0.50
2022-10-20T00:20:19.642Z,0.50
2022-10-20T00:24:21.551Z,0.57
2022-10-20T00:28:23.512Z,0.63
2022-10-20T00:32:25.194Z,0.63
2022-10-20T00:36:26.845Z,0.50
2022-10-20T00:40:28.441Z,0.50
2022-10-20T00:44:56.113Z,0.50
2022-10-20T00:49:02.687Z,0.50
2022-10-20T00:53:05.262Z,0.70
2022-10-20T00:57:06.929Z,0.43
2022-10-20T01:01:09.177Z,0.60
2022-10-20T01:05:10.987Z,0.60
2022-10-20T01:09:12.849Z,0.43
2022-10-20T01:13:31.297Z,0.60
2022-10-20T01:17:51.594Z,0.68
2022-10-20T01:21:58.939Z,0.50
2022-10-20T01:26:17.325Z,0.40
2022-10-20T01:30:21.982Z,0.50
2022-10-20T01:34:36.282Z,0.50
2022-10-20T01:38:44.148Z,0.60
2022-10-20T01:42:48.976Z,0.50
2022-10-20T01:46:51.291Z,0.60
2022-10-20T01:50:53.097Z,0.57
2022-10-20T01:54:54.747Z,0.88
2022-10-20T01:59:35.337Z,0.60
2022-10-20T02:03:59.052Z,0.40
2022-10-20T02:08:11.473Z,0.55
2022-10-20T02:12:27.383Z,0.60
2022-10-20T02:16:42.902Z,0.40
2022-10-20T02:20:47.569Z,0.50
2022-10-20T02:24:49.550Z,0.50
2022-10-20T02:29:00.691Z,0.40
2022-10-20T02:33:02.947Z,0.57
2022-10-20T02:37:04.642Z,0.70
2022-10-20T02:41:06.264Z,0.60
2022-10-20T02:45:08.543Z,0.47
2022-10-20T02:49:10.153Z,0.50
2022-10-20T02:53:11.818Z,0.60
2022-10-20T02:57:13.433Z,0.50
2022-10-20T03:01:15.134Z,0.73
2022-10-20T03:05:18.304Z,0.68
2022-10-20T03:09:19.917Z,0.60
2022-10-20T03:13:21.593Z,0.38
2022-10-20T03:17:23.812Z,0.73
2022-10-20T03:21:25.445Z,0.50
2022-10-20T03:25:27.053Z,0.60
2022-10-20T03:29:28.697Z,0.60
2022-10-20T03:33:30.810Z,0.50
2022-10-20T03:37:32.379Z,0.70
2022-10-20T03:41:33.975Z,0.75
2022-10-20T03:45:35.741Z,0.65
2022-10-20T03:49:37.757Z,0.50
2022-10-20T03:53:39.390Z,0.60
2022-10-20T03:57:40.986Z,0.60
2022-10-20T04:01:46.778Z,0.50
2022-10-20T04:05:48.399Z,0.63
2022-10-20T04:09:50.067Z,0.50
2022-10-20T04:13:51.732Z,0.60
2022-10-20T04:17:53.437Z,0.60
2022-10-20T04:21:55.034Z,0.60
2022-10-20T04:25:56.658Z,0.70
2022-10-20T04:29:58.268Z,0.60
2022-10-20T04:33:59.852Z,0.50
2022-10-20T04:38:01.613Z,0.70
2022-10-20T04:42:03.210Z,0.60
2022-10-20T04:46:08.417Z,0.60
2022-10-20T04:50:10.733Z,0.70
2022-10-20T04:54:12.342Z,0.70
2022-10-20T04:58:14.162Z,0.70
2022-10-20T05:02:15.875Z,0.60
2022-10-20T05:06:23.512Z,0.68
2022-10-20T05:10:25.202Z,0.50
2022-10-20T05:14:26.919Z,0.60
2022-10-20T05:18:29.299Z,0.60
2022-10-20T05:22:31.299Z,0.55
2022-10-20T05:26:36.904Z,0.75
2022-10-20T05:30:38.633Z,0.88
2022-10-20T05:34:40.350Z,0.55
2022-10-20T05:38:42.002Z,0.60
2022-10-20T05:42:43.621Z,0.65
2022-10-20T05:46:45.258Z,1.00
2022-10-20T05:50:46.845Z,0.50
2022-10-20T05:54:48.595Z,1.13
2022-10-20T05:58:50.313Z,0.73
2022-10-20T06:02:54.122Z,0.90
2022-10-20T06:06:56.493Z,0.90
2022-10-20T06:11:03.570Z,1.00
2022-10-20T06:15:05.681Z,0.80
2022-10-20T06:19:07.332Z,0.50
2022-10-20T06:23:09.062Z,0.80
2022-10-20T06:27:10.682Z,0.90
2022-10-20T06:31:15.212Z,0.98
2022-10-20T06:35:16.787Z,1.25
2022-10-20T06:39:23.535Z,1.00
2022-10-20T06:43:25.180Z,1.00
2022-10-20T06:47:29.561Z,1.00
2022-10-20T06:51:31.603Z,0.90
2022-10-20T06:55:33.214Z,1.02
2022-10-20T06:59:34.791Z,1.10
2022-10-20T07:03:37.560Z,0.80
2022-10-20T07:07:39.144Z,1.23
2022-10-20T07:11:41.646Z,0.90
2022-10-20T07:15:43.315Z,0.80
2022-10-20T07:19:45.130Z,1.20
2022-10-20T07:23:47.645Z,0.75
2022-10-20T07:27:49.306Z,1.00
2022-10-20T07:31:50.944Z,0.95
2022-10-20T07:35:52.585Z,1.33
2022-10-20T07:39:54.186Z,1.30
2022-10-20T07:43:57.019Z,1.38
2022-10-20T07:47:59.347Z,1.92
2022-10-20T07:52:00.917Z,1.80
2022-10-20T07:56:02.495Z,2.00
2022-10-20T08:00:04.592Z,1.85
2022-10-20T08:04:06.211Z,2.30
2022-10-20T08:08:07.805Z,1.73
2022-10-20T08:12:09.532Z,1.70
2022-10-20T08:20:32.508Z,1.58
2022-10-20T08:24:34.264Z,1.50
2022-10-20T08:28:36.112Z,1.70
2022-10-20T08:32:37.858Z,1.35
2022-10-20T08:36:39.760Z,1.95
2022-10-20T08:40:42.917Z,1.67
2022-10-20T08:44:47.285Z,1.90
2022-10-20T08:48:49.464Z,1.75
2022-10-20T08:52:55.650Z,1.77
2022-10-20T08:56:59.068Z,1.60
2022-10-20T09:01:01.396Z,1.70
2022-10-20T09:05:06.354Z,2.08
2022-10-20T09:09:14.526Z,1.70
2022-10-20T09:13:26.393Z,1.70
2022-10-20T09:17:28.140Z,1.70
2022-10-20T09:21:34.789Z,1.80
2022-10-20T09:25:36.430Z,1.50
2022-10-20T09:29:38.907Z,1.98
2022-10-20T09:33:40.696Z,1.95
2022-10-20T09:37:44.939Z,1.83
2022-10-20T09:41:47.333Z,1.60
2022-10-20T09:46:00.082Z,1.85
2022-10-20T09:50:05.479Z,1.90
2022-10-20T09:54:14.882Z,2.00
2022-10-20T09:58:29.643Z,1.92
2022-10-20T10:02:32.280Z,1.52
2022-10-20T10:06:44.305Z,1.85
2022-10-20T10:10:58.159Z,2.00
2022-10-20T10:15:05.557Z,1.95
2022-10-20T10:19:07.622Z,2.30
2022-10-20T10:23:25.009Z,1.92
2022-10-20T10:27:29.511Z,2.10
2022-10-20T10:31:33.470Z,1.85
2022-10-20T10:35:41.017Z,1.90
2022-10-20T10:39:44.016Z,1.60
2022-10-20T10:44:09.238Z,1.95
2022-10-20T10:48:16.731Z,2.00
2022-10-20T10:52:26.239Z,1.80
2022-10-20T10:56:37.404Z,1.95
2022-10-20T11:00:51.686Z,1.65
2022-10-20T11:05:37.220Z,2.20
2022-10-20T11:09:56.327Z,1.85
2022-10-20T11:14:24.430Z,1.88
2022-10-20T11:18:41.060Z,2.20
2022-10-20T11:22:53.403Z,2.63
2022-10-20T11:27:25.706Z,2.65
2022-10-20T11:32:16.521Z,2.55
2022-10-20T11:36:21.710Z,3.17
2022-10-20T11:40:28.667Z,3.73
2022-10-20T11:44:44.643Z,2.60
2022-10-20T11:53:29.879Z,2.33
2022-10-20T11:57:37.562Z,2.30
2022-10-20T12:02:10.221Z,2.33
2022-10-20T12:06:34.774Z,2.75
2022-10-20T12:10:55.617Z,1.80
2022-10-20T12:15:01.320Z,2.20
2022-10-20T12:19:15.185Z,2.28
2022-10-20T12:23:45.349Z,2.08
2022-10-20T12:27:46.964Z,2.33
2022-10-20T12:32:21.071Z,2.00
2022-10-20T12:36:31.777Z,2.08
2022-10-20T12:40:42.957Z,2.22
2022-10-20T12:44:45.703Z,1.80
2022-10-20T12:48:48.896Z,2.10
2022-10-20T12:52:50.580Z,1.90
2022-10-20T12:56:57.315Z,2.10
2022-10-20T13:00:58.865Z,2.25
2022-10-20T13:05:06.186Z,2.22
2022-10-20T13:09:21.696Z,2.05
2022-10-20T13:13:23.282Z,2.13
2022-10-20T13:17:30.278Z,2.42
2022-10-20T13:21:34.342Z,2.00
2022-10-20T13:25:44.293Z,2.03
2022-10-20T13:29:48.088Z,2.05
2022-10-20T13:34:11.537Z,2.03
2022-10-20T13:38:19.724Z,1.98
2022-10-20T13:42:27.529Z,2.10
2022-10-20T13:46:52.142Z,2.35
2022-10-20T13:50:59.008Z,2.17
2022-10-20T13:55:01.506Z,2.00
2022-10-20T13:59:06.607Z,2.40
2022-10-20T14:03:18.316Z,1.88
2022-10-20T14:07:19.911Z,2.17
2022-10-20T14:11:22.282Z,1.83
2022-10-20T14:15:35.016Z,1.88
2022-10-20T14:19:37.247Z,2.42
2022-10-20T14:23:44.518Z,2.35
2022-10-20T14:27:47.467Z,2.10
2022-10-20T14:31:49.484Z,2.40
2022-10-20T14:35:56.958Z,1.95
2022-10-20T14:40:05.282Z,2.42
2022-10-20T14:44:15.510Z,2.47
2022-10-20T14:48:27.434Z,2.42
2022-10-20T14:52:32.189Z,2.33
2022-10-20T14:56:33.845Z,2.38
2022-10-20T15:00:36.642Z,2.15
2022-10-20T15:04:40.530Z,2.00
2022-10-20T15:08:53.067Z,2.05
2022-10-20T15:12:55.727Z,2.10
2022-10-20T15:16:57.402Z,2.00
2022-10-20T15:20:59.078Z,1.83
2022-10-20T15:25:00.674Z,1.90
2022-10-20T15:29:02.662Z,2.10
2022-10-20T15:33:04.293Z,1.90
2022-10-20T15:37:05.871Z,1.83
2022-10-20T15:41:07.477Z,1.90
2022-10-20T15:45:23.144Z,1.80
2022-10-20T15:49:24.772Z,1.80
2022-10-20T15:53:26.481Z,1.52
2022-10-20T15:57:28.635Z,1.65
2022-10-20T16:01:30.551Z,1.70
2022-10-20T16:05:32.797Z,1.40
2022-10-20T16:09:34.428Z,1.48
2022-10-20T16:13:40.216Z,1.73
2022-10-20T16:17:41.843Z,1.50
2022-10-20T16:21:43.526Z,1.70
2022-10-20T16:25:45.188Z,1.45
2022-10-20T16:29:49.091Z,1.63
2022-10-20T16:33:51.572Z,1.30
2022-10-20T16:37:53.274Z,1.73
2022-10-20T16:41:54.977Z,1.30
2022-10-20T16:45:56.769Z,2.00
2022-10-20T16:49:58.367Z,1.67
2022-10-20T16:54:03.249Z,1.75
2022-10-20T16:58:05.282Z,1.90
2022-10-20T17:02:07.294Z,1.60
2022-10-20T17:06:09.853Z,1.63
2022-10-20T17:10:11.444Z,1.80
2022-10-20T17:14:13.074Z,2.03
2022-10-20T17:18:14.777Z,1.80
2022-10-20T17:22:16.482Z,1.75
2022-10-20T17:26:21.437Z,1.80
2022-10-20T17:30:23.014Z,1.48
2022-10-20T17:34:24.654Z,1.70
2022-10-20T17:38:27.931Z,1.55
2022-10-20T17:42:29.570Z,1.50
2022-10-20T17:46:31.314Z,1.60
2022-10-20T17:50:33.261Z,1.75
2022-10-20T17:54:34.872Z,1.63
2022-10-20T17:58:36.722Z,1.65
2022-10-20T18:02:38.641Z,1.60
2022-10-20T18:06:41.345Z,1.92
2022-10-20T18:10:43.934Z,1.63
2022-10-20T18:14:46.073Z,1.80
2022-10-20T18:18:48.287Z,1.85
2022-10-20T18:22:50.001Z,1.60
2022-10-20T18:26:51.608Z,1.60
2022-10-20T18:30:53.213Z,1.63
2022-10-20T18:34:54.793Z,1.83
2022-10-20T18:38:56.714Z,1.42
2022-10-20T18:43:00.488Z,1.90
2022-10-20T18:47:02.251Z,1.65
2022-10-20T18:51:05.464Z,2.10
2022-10-20T18:55:08.543Z,1.98
2022-10-20T18:59:14.085Z,1.58
2022-10-20T19:03:15.772Z,1.83
2022-10-20T19:07:17.994Z,1.65
2022-10-20T19:11:21.160Z,1.75
2022-10-20T19:15:22.775Z,1.80
2022-10-20T19:19:24.372Z,1.77
2022-10-20T19:23:26.520Z,1.90
2022-10-20T19:27:28.185Z,1.67
2022-10-20T19:31:41.034Z,1.77
2022-10-20T19:35:42.639Z,1.83
2022-10-20T19:39:44.464Z,1.58
2022-10-20T19:43:46.345Z,1.55
2022-10-20T19:47:47.949Z,1.58
2022-10-20T19:51:50.270Z,1.60
2022-10-20T19:55:51.963Z,1.98
2022-10-20T19:59:53.644Z,1.77
2022-10-20T20:03:55.468Z,2.08
2022-10-20T20:07:57.043Z,1.77
2022-10-20T20:11:59.898Z,1.50
2022-10-20T20:16:08.670Z,1.40
2022-10-20T20:20:10.337Z,1.80
2022-10-20T20:24:13.254Z,2.17
2022-10-20T20:28:14.870Z,1.90
2022-10-20T20:32:17.573Z,1.73
2022-10-20T20:36:19.570Z,1.77
2022-10-20T20:40:21.359Z,1.92
2022-10-20T20:48:24.483Z,1.67
2022-10-20T20:52:27.510Z,1.88
2022-10-20T20:56:29.338Z,1.90
2022-10-20T21:00:30.912Z,1.98
2022-10-20T21:04:32.518Z,1.80
2022-10-20T21:08:35.712Z,1.80
2022-10-20T21:12:37.744Z,2.63
2022-10-20T21:16:39.693Z,1.80
2022-10-20T21:20:41.289Z,1.58
2022-10-20T21:24:42.906Z,1.70
2022-10-20T21:28:44.870Z,1.83
2022-10-20T21:32:46.429Z,2.10
2022-10-20T21:36:48.038Z,2.03
2022-10-20T21:40:49.624Z,1.88
2022-10-20T21:44:51.223Z,1.50
2022-10-20T21:48:55.175Z,1.80
2022-10-20T21:52:56.876Z,1.85
2022-10-20T21:56:58.585Z,1.85
2022-10-20T22:01:00.361Z,1.90
2022-10-20T22:05:02.009Z,1.80
2022-10-20T22:09:04.166Z,1.92
2022-10-20T22:13:05.817Z,1.83
2022-10-20T22:17:07.724Z,2.17
2022-10-20T22:21:13.438Z,1.83
2022-10-20T22:29:17.611Z,1.67
2022-10-20T22:33:19.234Z,1.55
2022-10-20T22:37:20.879Z,1.90
2022-10-20T22:41:22.543Z,1.73
2022-10-20T22:45:24.114Z,1.55
2022-10-20T22:49:25.702Z,1.75
2022-10-20T22:53:27.283Z,1.90
2022-10-20T22:57:28.998Z,1.67
2022-10-20T23:01:30.773Z,1.77
2022-10-20T23:05:32.911Z,2.10
2022-10-20T23:09:34.589Z,1.60
2022-10-20T23:13:36.213Z,1.70
2022-10-20T23:17:38.089Z,1.65
2022-10-20T23:21:40.097Z,1.75
2022-10-20T23:25:42.742Z,1.83
2022-10-20T23:29:44.434Z,2.03
2022-10-20T23:33:47.325Z,1.90
2022-10-20T23:37:48.901Z,1.83
2022-10-20T23:41:50.497Z,1.75
2022-10-20T23:45:52.143Z,1.88
2022-10-20T23:49:53.714Z,2.03
2022-10-20T23:53:55.823Z,2.00
2022-10-20T23:57:57.422Z,1.73
